Catàleg de serveis del Meteocat
Campanya meteocatpedra

Dades de l'estació automàtica els Alamús

?
?
Resum diari 21:00 TU
Dades diàries de l'estació meteorològica
Temperatura mitjana 24.2 °C
Temperatura màxima 31.4 °C 16:01 TU
Temperatura mínima 17.1 °C 1:32 TU
Humitat relativa mitjana 64%
Precipitació acumulada 0.0 mm
Ratxa màxima del vent (2 m) 19.1 km/h - 261º 9:20 TU

El tram horari està expressat en Temps Universal (TU). Cal sumar una hora en horari d'hivern i dues en horari d'estiu per passar a l'hora oficial.

els Alamús

Metadades estació meteorol´gica
Municipi Els Alamús
Comarca Segrià
Altitud 235 m
Data alta 22.06.2011
Estat actual Operativa
Dades de període
Període
TU
TM
°C
TX
°C
TN
°C
HRM
%
PPT
mm
VVM (2 m)
km/h
DVM (2 m)
graus
VVX (2 m)
km/h
00:00 - 00:30 17.4 17.7 17.2 91 0.0 0.0 18 1.8
00:30 - 01:00 17.3 17.4 17.2 92 0.0 0.0 141 1.8
01:00 - 01:30 17.1 17.2 17.1 93 0.0 0.4 156 3.2
01:30 - 02:00 17.2 17.3 17.1 93 0.0 0.4 137 2.9
02:00 - 02:30 17.5 18.2 17.2 92 0.0 1.1 167 4.0
02:30 - 03:00 18.8 19.5 18.2 87 0.0 1.4 165 4.7
03:00 - 03:30 19.9 20.3 19.5 81 0.0 2.5 208 9.7
03:30 - 04:00 19.6 20.1 19.0 82 0.0 5.8 220 15.1
04:00 - 04:30 18.9 19.0 18.8 83 0.0 5.4 230 9.7
04:30 - 05:00 18.5 18.8 18.2 85 0.0 3.2 230 8.3
05:00 - 05:30 18.6 18.8 18.4 84 0.0 3.6 226 8.6
05:30 - 06:00 19.1 19.7 18.8 80 0.0 4.7 224 11.2
06:00 - 06:30 20.1 20.5 19.7 75 0.0 5.4 229 12.6
06:30 - 07:00 20.7 20.9 20.5 72 0.0 7.6 238 15.5
07:00 - 07:30 21.1 21.5 20.8 71 0.0 7.6 236 18.7
07:30 - 08:00 21.7 22.2 21.5 69 0.0 7.9 228 16.6
08:00 - 08:30 22.6 23.2 22.3 65 0.0 8.6 245 17.3
08:30 - 09:00 23.3 23.9 22.8 63 0.0 7.6 239 16.6
09:00 - 09:30 24.1 24.5 23.6 61 0.0 7.2 253 19.1
09:30 - 10:00 24.6 25.1 24.0 60 0.0 6.5 269 16.6
10:00 - 10:30 25.5 26.2 24.9 58 0.0 6.1 271 14.4
10:30 - 11:00 26.4 26.8 25.7 54 0.0 7.2 246 18.4
11:00 - 11:30 27.1 27.8 26.5 53 0.0 6.5 258 17.3
11:30 - 12:00 27.8 28.2 27.3 50 0.0 6.5 246 15.1
12:00 - 12:30 28.5 28.8 27.9 49 0.0 6.5 254 16.2
12:30 - 13:00 29.2 29.8 28.6 47 0.0 5.8 253 16.6
13:00 - 13:30 29.5 29.8 29.0 46 0.0 5.8 262 14.8
13:30 - 14:00 30.0 30.4 29.5 44 0.0 5.8 255 13.7
14:00 - 14:30 30.6 31.2 30.1 41 0.0 5.4 250 14.8
14:30 - 15:00 30.2 31.0 29.4 41 0.0 4.7 268 12.6
15:00 - 15:30 30.8 31.3 30.5 39 0.0 5.4 252 15.8
15:30 - 16:00 31.0 31.3 30.9 39 0.0 5.4 250 14.0
16:00 - 16:30 31.2 31.4 30.9 39 0.0 4.7 255 12.6
16:30 - 17:00 30.9 31.1 30.6 40 0.0 4.3 269 11.2
17:00 - 17:30 30.9 31.3 30.7 38 0.0 4.0 248 12.6
17:30 - 18:00 30.4 30.8 30.1 39 0.0 2.5 257 6.8
18:00 - 18:30 29.8 30.1 29.5 41 0.0 1.4 259 5.8
18:30 - 19:00 28.0 29.4 26.2 48 0.0 0.4 276 1.8
19:00 - 19:30 23.9 26.1 22.1 67 0.0 0.0 137 2.2
19:30 - 20:00 22.1 22.9 21.5 70 0.0 2.2 153 8.3
20:00 - 20:30 23.2 23.8 22.5 67 0.0 6.8 127 10.8
20:30 - 21:00 23.9 24.1 23.6 70 0.0 8.3 127 13.0
21:00 - 21:30 23.2 23.6 22.9 75 0.0 8.6 126 12.6

Les dades en taronja només han passat un control de qualitat automàtic. Resta pendent la seva validació definitiva.